sensor_id;sensor_type;location;lat;lon;timestamp;temperature;humidity
1411;DHT22;700;51.906;8.404;2023-07-20T00:01:39;20.10;99.90
1411;DHT22;700;51.906;8.404;2023-07-20T00:06:44;20.00;99.90
1411;DHT22;700;51.906;8.404;2023-07-20T00:11:51;20.10;99.90
1411;DHT22;700;51.906;8.404;2023-07-20T00:16:54;20.10;99.90
1411;DHT22;700;51.906;8.404;2023-07-20T00:21:58;20.00;99.90
1411;DHT22;700;51.906;8.404;2023-07-20T00:26:59;19.60;99.90
1411;DHT22;700;51.906;8.404;2023-07-20T00:32:01;19.60;99.90
1411;DHT22;700;51.906;8.404;2023-07-20T00:37:01;19.80;99.90
1411;DHT22;700;51.906;8.404;2023-07-20T00:42:04;19.80;99.90
1411;DHT22;700;51.906;8.404;2023-07-20T00:47:07;19.90;99.90
1411;DHT22;700;51.906;8.404;2023-07-20T00:52:14;20.00;99.90
1411;DHT22;700;51.906;8.404;2023-07-20T00:57:15;20.00;99.90
1411;DHT22;700;51.906;8.404;2023-07-20T01:02:16;20.00;99.90
1411;DHT22;700;51.906;8.404;2023-07-20T01:07:39;19.50;99.90
1411;DHT22;700;51.906;8.404;2023-07-20T01:12:47;19.40;99.90
1411;DHT22;700;51.906;8.404;2023-07-20T01:17:48;19.40;99.90
1411;DHT22;700;51.906;8.404;2023-07-20T01:28:26;19.40;99.90
1411;DHT22;700;51.906;8.404;2023-07-20T01:33:33;19.40;99.90
1411;DHT22;700;51.906;8.404;2023-07-20T01:38:34;19.20;99.90
1411;DHT22;700;51.906;8.404;2023-07-20T01:43:36;19.00;99.90
1411;DHT22;700;51.906;8.404;2023-07-20T01:48:36;19.20;99.90
1411;DHT22;700;51.906;8.404;2023-07-20T01:53:39;19.20;99.90
1411;DHT22;700;51.906;8.404;2023-07-20T01:58:42;19.10;99.90
1411;DHT22;700;51.906;8.404;2023-07-20T02:03:43;19.20;99.90
1411;DHT22;700;51.906;8.404;2023-07-20T02:08:44;19.10;99.90
1411;DHT22;700;51.906;8.404;2023-07-20T02:13:44;19.00;99.90
1411;DHT22;700;51.906;8.404;2023-07-20T02:18:47;19.20;99.90
1411;DHT22;700;51.906;8.404;2023-07-20T02:23:48;18.70;99.90
1411;DHT22;700;51.906;8.404;2023-07-20T02:28:49;18.70;99.90
1411;DHT22;700;51.906;8.404;2023-07-20T02:33:49;19.00;99.90
1411;DHT22;700;51.906;8.404;2023-07-20T02:38:50;19.20;99.90
1411;DHT22;700;51.906;8.404;2023-07-20T02:43:51;19.20;99.90
1411;DHT22;700;51.906;8.404;2023-07-20T02:48:54;19.20;99.90
1411;DHT22;700;51.906;8.404;2023-07-20T02:53:57;19.40;99.90
1411;DHT22;700;51.906;8.404;2023-07-20T02:59:01;19.10;99.90
1411;DHT22;700;51.906;8.404;2023-07-20T03:04:06;19.20;99.90
1411;DHT22;700;51.906;8.404;2023-07-20T03:09:10;18.90;99.90
1411;DHT22;700;51.906;8.404;2023-07-20T03:14:11;19.10;99.90
1411;DHT22;700;51.906;8.404;2023-07-20T03:19:14;19.10;99.90
1411;DHT22;700;51.906;8.404;2023-07-20T03:24:16;19.20;99.90
1411;DHT22;700;51.906;8.404;2023-07-20T03:29:18;19.30;99.90
1411;DHT22;700;51.906;8.404;2023-07-20T03:34:18;19.50;99.90
1411;DHT22;700;51.906;8.404;2023-07-20T03:39:19;19.50;99.90
1411;DHT22;700;51.906;8.404;2023-07-20T03:44:24;19.10;99.90
1411;DHT22;700;51.906;8.404;2023-07-20T03:49:32;19.20;99.90
1411;DHT22;700;51.906;8.404;2023-07-20T03:54:37;19.40;99.90
1411;DHT22;700;51.906;8.404;2023-07-20T03:59:45;19.40;99.90
1411;DHT22;700;51.906;8.404;2023-07-20T04:04:46;19.50;99.90
1411;DHT22;700;51.906;8.404;2023-07-20T04:09:47;19.40;99.90
1411;DHT22;700;51.906;8.404;2023-07-20T04:14:47;19.50;99.90
1411;DHT22;700;51.906;8.404;2023-07-20T04:19:48;19.50;99.90
1411;DHT22;700;51.906;8.404;2023-07-20T04:24:48;19.50;99.90
1411;DHT22;700;51.906;8.404;2023-07-20T04:29:51;19.50;99.90
1411;DHT22;700;51.906;8.404;2023-07-20T04:34:52;19.60;99.90
1411;DHT22;700;51.906;8.404;2023-07-20T04:39:52;19.60;99.90
1411;DHT22;700;51.906;8.404;2023-07-20T04:44:53;19.60;99.90
1411;DHT22;700;51.906;8.404;2023-07-20T04:49:54;19.50;99.90
1411;DHT22;700;51.906;8.404;2023-07-20T04:54:54;19.50;99.90
1411;DHT22;700;51.906;8.404;2023-07-20T04:59:55;19.50;99.90
1411;DHT22;700;51.906;8.404;2023-07-20T05:04:55;19.50;99.90
1411;DHT22;700;51.906;8.404;2023-07-20T05:09:56;19.40;99.90
1411;DHT22;700;51.906;8.404;2023-07-20T05:14:56;19.30;99.90
1411;DHT22;700;51.906;8.404;2023-07-20T05:19:59;19.30;99.90
1411;DHT22;700;51.906;8.404;2023-07-20T05:25:00;19.40;99.90
1411;DHT22;700;51.906;8.404;2023-07-20T05:30:03;19.30;99.90
1411;DHT22;700;51.906;8.404;2023-07-20T05:35:04;19.30;99.90
1411;DHT22;700;51.906;8.404;2023-07-20T05:40:06;19.40;99.90
1411;DHT22;700;51.906;8.404;2023-07-20T05:45:08;19.30;99.90
1411;DHT22;700;51.906;8.404;2023-07-20T05:50:09;19.50;99.90
1411;DHT22;700;51.906;8.404;2023-07-20T05:55:12;19.90;99.90
1411;DHT22;700;51.906;8.404;2023-07-20T06:00:13;20.00;99.90
1411;DHT22;700;51.906;8.404;2023-07-20T06:05:16;20.00;99.90
1411;DHT22;700;51.906;8.404;2023-07-20T06:10:18;20.00;99.90
1411;DHT22;700;51.906;8.404;2023-07-20T06:15:32;20.00;99.90
1411;DHT22;700;51.906;8.404;2023-07-20T06:20:37;20.20;99.90
1411;DHT22;700;51.906;8.404;2023-07-20T06:25:40;20.30;99.90
1411;DHT22;700;51.906;8.404;2023-07-20T06:30:40;20.10;99.90
1411;DHT22;700;51.906;8.404;2023-07-20T06:35:43;20.30;99.90
1411;DHT22;700;51.906;8.404;2023-07-20T06:40:46;20.40;99.90
1411;DHT22;700;51.906;8.404;2023-07-20T06:45:56;20.50;99.90
1411;DHT22;700;51.906;8.404;2023-07-20T06:50:56;20.40;99.90
1411;DHT22;700;51.906;8.404;2023-07-20T06:55:59;20.60;99.90
1411;DHT22;700;51.906;8.404;2023-07-20T07:01:04;21.00;99.90
1411;DHT22;700;51.906;8.404;2023-07-20T07:06:05;21.00;99.90
1411;DHT22;700;51.906;8.404;2023-07-20T07:11:10;21.00;99.90
1411;DHT22;700;51.906;8.404;2023-07-20T07:16:11;20.80;99.90
1411;DHT22;700;51.906;8.404;2023-07-20T07:21:14;21.00;99.90
1411;DHT22;700;51.906;8.404;2023-07-20T07:26:15;21.20;99.90
1411;DHT22;700;51.906;8.404;2023-07-20T07:31:18;21.40;99.90
1411;DHT22;700;51.906;8.404;2023-07-20T07:36:19;21.60;99.90
1411;DHT22;700;51.906;8.404;2023-07-20T07:41:20;22.00;99.90
1411;DHT22;700;51.906;8.404;2023-07-20T07:46:21;22.10;99.90
1411;DHT22;700;51.906;8.404;2023-07-20T07:51:21;22.10;99.90
1411;DHT22;700;51.906;8.404;2023-07-20T07:56:22;21.60;99.90
1411;DHT22;700;51.906;8.404;2023-07-20T08:01:25;21.60;99.90
1411;DHT22;700;51.906;8.404;2023-07-20T08:06:26;21.60;99.90
1411;DHT22;700;51.906;8.404;2023-07-20T08:11:26;21.40;99.90
1411;DHT22;700;51.906;8.404;2023-07-20T08:16:27;21.40;99.90
1411;DHT22;700;51.906;8.404;2023-07-20T08:21:28;21.50;99.90
1411;DHT22;700;51.906;8.404;2023-07-20T08:26:31;21.50;99.90
1411;DHT22;700;51.906;8.404;2023-07-20T08:31:31;21.60;99.90
1411;DHT22;700;51.906;8.404;2023-07-20T08:36:32;22.10;99.90
1411;DHT22;700;51.906;8.404;2023-07-20T08:41:35;22.20;99.90
1411;DHT22;700;51.906;8.404;2023-07-20T08:46:42;22.30;99.90
1411;DHT22;700;51.906;8.404;2023-07-20T08:51:47;22.40;99.90
1411;DHT22;700;51.906;8.404;2023-07-20T08:56:49;22.40;99.90
1411;DHT22;700;51.906;8.404;2023-07-20T09:01:52;22.50;99.90
1411;DHT22;700;51.906;8.404;2023-07-20T09:06:58;22.70;99.90
1411;DHT22;700;51.906;8.404;2023-07-20T09:12:01;22.60;99.90
1411;DHT22;700;51.906;8.404;2023-07-20T09:17:01;22.70;99.90
1411;DHT22;700;51.906;8.404;2023-07-20T09:22:05;22.80;99.90
1411;DHT22;700;51.906;8.404;2023-07-20T09:27:06;23.40;99.90
1411;DHT22;700;51.906;8.404;2023-07-20T09:32:07;24.10;99.90
1411;DHT22;700;51.906;8.404;2023-07-20T09:37:11;24.40;99.90
1411;DHT22;700;51.906;8.404;2023-07-20T09:42:12;25.00;99.90
1411;DHT22;700;51.906;8.404;2023-07-20T09:47:13;28.70;97.60
1411;DHT22;700;51.906;8.404;2023-07-20T09:52:22;29.50;91.40
1411;DHT22;700;51.906;8.404;2023-07-20T09:57:25;28.60;83.20
1411;DHT22;700;51.906;8.404;2023-07-20T10:02:32;27.70;87.90
1411;DHT22;700;51.906;8.404;2023-07-20T10:07:39;28.10;91.10
1411;DHT22;700;51.906;8.404;2023-07-20T10:12:52;33.00;75.10
1411;DHT22;700;51.906;8.404;2023-07-20T10:17:59;37.00;58.20
1411;DHT22;700;51.906;8.404;2023-07-20T10:23:06;39.90;45.50
1411;DHT22;700;51.906;8.404;2023-07-20T10:28:07;42.90;38.90
1411;DHT22;700;51.906;8.404;2023-07-20T10:33:11;42.80;33.70
1411;DHT22;700;51.906;8.404;2023-07-20T10:38:11;43.40;32.10
1411;DHT22;700;51.906;8.404;2023-07-20T10:43:19;44.90;31.30
1411;DHT22;700;51.906;8.404;2023-07-20T10:48:21;44.40;30.80
1411;DHT22;700;51.906;8.404;2023-07-20T10:53:22;44.00;28.40
1411;DHT22;700;51.906;8.404;2023-07-20T10:58:27;39.00;32.00
1411;DHT22;700;51.906;8.404;2023-07-20T11:08:45;34.50;39.00
1411;DHT22;700;51.906;8.404;2023-07-20T11:18:56;31.90;44.70
1411;DHT22;700;51.906;8.404;2023-07-20T11:24:03;30.90;45.30
1411;DHT22;700;51.906;8.404;2023-07-20T11:29:03;29.70;48.10
1411;DHT22;700;51.906;8.404;2023-07-20T11:34:04;29.20;49.30
1411;DHT22;700;51.906;8.404;2023-07-20T11:39:06;34.20;42.80
1411;DHT22;700;51.906;8.404;2023-07-20T11:44:09;38.90;37.40
1411;DHT22;700;51.906;8.404;2023-07-20T11:49:13;42.30;34.40
1411;DHT22;700;51.906;8.404;2023-07-20T11:54:16;45.70;29.50
1411;DHT22;700;51.906;8.404;2023-07-20T11:59:19;47.40;26.30
1411;DHT22;700;51.906;8.404;2023-07-20T12:04:22;47.20;25.10
1411;DHT22;700;51.906;8.404;2023-07-20T12:09:23;47.10;24.40
1411;DHT22;700;51.906;8.404;2023-07-20T12:14:25;44.50;23.20
1411;DHT22;700;51.906;8.404;2023-07-20T12:19:26;42.90;25.90
1411;DHT22;700;51.906;8.404;2023-07-20T12:24:26;43.30;27.30
1411;DHT22;700;51.906;8.404;2023-07-20T12:29:27;45.60;26.80
1411;DHT22;700;51.906;8.404;2023-07-20T12:34:28;45.10;26.50
1411;DHT22;700;51.906;8.404;2023-07-20T12:39:28;46.40;25.40
1411;DHT22;700;51.906;8.404;2023-07-20T12:44:29;46.60;23.90
1411;DHT22;700;51.906;8.404;2023-07-20T12:49:30;42.50;25.70
1411;DHT22;700;51.906;8.404;2023-07-20T12:54:31;40.90;28.00
1411;DHT22;700;51.906;8.404;2023-07-20T12:59:31;43.80;26.60
1411;DHT22;700;51.906;8.404;2023-07-20T13:04:32;45.20;25.10
1411;DHT22;700;51.906;8.404;2023-07-20T13:09:33;44.70;25.70
1411;DHT22;700;51.906;8.404;2023-07-20T13:14:33;45.10;24.90
1411;DHT22;700;51.906;8.404;2023-07-20T13:19:34;46.10;24.90
1411;DHT22;700;51.906;8.404;2023-07-20T13:24:35;46.00;23.70
1411;DHT22;700;51.906;8.404;2023-07-20T13:29:35;46.30;24.80
1411;DHT22;700;51.906;8.404;2023-07-20T13:34:36;46.00;24.00
1411;DHT22;700;51.906;8.404;2023-07-20T13:39:37;44.30;25.70
1411;DHT22;700;51.906;8.404;2023-07-20T13:44:38;43.10;26.10
1411;DHT22;700;51.906;8.404;2023-07-20T13:49:39;39.20;27.10
1411;DHT22;700;51.906;8.404;2023-07-20T13:54:39;36.30;31.60
1411;DHT22;700;51.906;8.404;2023-07-20T13:59:46;34.30;32.70
1411;DHT22;700;51.906;8.404;2023-07-20T14:04:46;32.50;35.40
1411;DHT22;700;51.906;8.404;2023-07-20T14:09:49;31.70;39.00
1411;DHT22;700;51.906;8.404;2023-07-20T14:14:50;31.10;38.20
1411;DHT22;700;51.906;8.404;2023-07-20T14:19:52;30.20;41.30
1411;DHT22;700;51.906;8.404;2023-07-20T14:24:57;30.60;40.90
1411;DHT22;700;51.906;8.404;2023-07-20T14:29:59;30.50;38.50
1411;DHT22;700;51.906;8.404;2023-07-20T14:34:59;30.50;38.90
1411;DHT22;700;51.906;8.404;2023-07-20T14:40:00;29.90;38.90
1411;DHT22;700;51.906;8.404;2023-07-20T14:45:01;29.90;41.40
1411;DHT22;700;51.906;8.404;2023-07-20T14:50:03;29.50;41.30
1411;DHT22;700;51.906;8.404;2023-07-20T14:55:04;29.30;41.30
1411;DHT22;700;51.906;8.404;2023-07-20T15:00:05;29.20;42.70
1411;DHT22;700;51.906;8.404;2023-07-20T15:05:20;28.90;43.10
1411;DHT22;700;51.906;8.404;2023-07-20T15:10:23;29.00;43.80
1411;DHT22;700;51.906;8.404;2023-07-20T15:15:24;29.20;47.40
1411;DHT22;700;51.906;8.404;2023-07-20T15:20:24;29.30;46.50
1411;DHT22;700;51.906;8.404;2023-07-20T15:25:27;29.30;45.50
1411;DHT22;700;51.906;8.404;2023-07-20T15:30:29;29.20;46.40
1411;DHT22;700;51.906;8.404;2023-07-20T15:35:29;28.90;46.50
1411;DHT22;700;51.906;8.404;2023-07-20T15:40:32;28.80;48.50
1411;DHT22;700;51.906;8.404;2023-07-20T15:45:35;28.60;47.70
1411;DHT22;700;51.906;8.404;2023-07-20T15:50:36;28.10;47.30
1411;DHT22;700;51.906;8.404;2023-07-20T15:55:36;28.00;48.70
1411;DHT22;700;51.906;8.404;2023-07-20T16:00:37;28.00;49.40
1411;DHT22;700;51.906;8.404;2023-07-20T16:05:42;27.90;47.80
1411;DHT22;700;51.906;8.404;2023-07-20T16:10:43;27.90;47.50
1411;DHT22;700;51.906;8.404;2023-07-20T16:15:49;27.90;48.00
1411;DHT22;700;51.906;8.404;2023-07-20T16:20:50;27.90;50.90
1411;DHT22;700;51.906;8.404;2023-07-20T16:25:53;27.70;48.70
1411;DHT22;700;51.906;8.404;2023-07-20T16:30:53;27.60;51.10
1411;DHT22;700;51.906;8.404;2023-07-20T16:35:54;27.40;48.80
1411;DHT22;700;51.906;8.404;2023-07-20T16:40:56;27.00;48.00
1411;DHT22;700;51.906;8.404;2023-07-20T16:46:05;27.10;49.20
1411;DHT22;700;51.906;8.404;2023-07-20T16:51:06;27.30;48.80
1411;DHT22;700;51.906;8.404;2023-07-20T16:56:06;27.30;49.60
1411;DHT22;700;51.906;8.404;2023-07-20T17:01:07;27.20;48.70
1411;DHT22;700;51.906;8.404;2023-07-20T17:06:08;27.30;48.90
1411;DHT22;700;51.906;8.404;2023-07-20T17:11:08;27.60;48.90
1411;DHT22;700;51.906;8.404;2023-07-20T17:16:09;27.40;48.40
1411;DHT22;700;51.906;8.404;2023-07-20T17:21:14;27.60;49.00
1411;DHT22;700;51.906;8.404;2023-07-20T17:26:16;27.60;48.80
1411;DHT22;700;51.906;8.404;2023-07-20T17:31:16;27.30;49.20
1411;DHT22;700;51.906;8.404;2023-07-20T17:36:18;27.10;50.40
1411;DHT22;700;51.906;8.404;2023-07-20T17:41:21;26.60;49.20
1411;DHT22;700;51.906;8.404;2023-07-20T17:46:22;26.40;51.00
1411;DHT22;700;51.906;8.404;2023-07-20T17:51:24;26.00;51.00
1411;DHT22;700;51.906;8.404;2023-07-20T17:56:27;25.70;52.90
1411;DHT22;700;51.906;8.404;2023-07-20T18:01:28;25.50;53.20
1411;DHT22;700;51.906;8.404;2023-07-20T18:06:33;25.20;53.80
1411;DHT22;700;51.906;8.404;2023-07-20T18:11:39;25.10;54.10
1411;DHT22;700;51.906;8.404;2023-07-20T18:16:39;24.90;54.20
1411;DHT22;700;51.906;8.404;2023-07-20T18:21:40;24.80;54.80
1411;DHT22;700;51.906;8.404;2023-07-20T18:26:41;24.80;56.10
1411;DHT22;700;51.906;8.404;2023-07-20T18:31:41;24.80;56.10
1411;DHT22;700;51.906;8.404;2023-07-20T18:36:42;24.70;56.80
1411;DHT22;700;51.906;8.404;2023-07-20T18:41:42;24.60;57.60
1411;DHT22;700;51.906;8.404;2023-07-20T18:46:43;24.40;58.30
1411;DHT22;700;51.906;8.404;2023-07-20T18:51:46;24.20;59.10
1411;DHT22;700;51.906;8.404;2023-07-20T18:56:49;24.00;59.80
1411;DHT22;700;51.906;8.404;2023-07-20T19:01:52;23.80;60.90
1411;DHT22;700;51.906;8.404;2023-07-20T19:06:55;23.50;61.90
1411;DHT22;700;51.906;8.404;2023-07-20T19:11:55;23.50;62.90
1411;DHT22;700;51.906;8.404;2023-07-20T19:16:59;23.30;64.00
1411;DHT22;700;51.906;8.404;2023-07-20T19:21:59;23.20;65.50
1411;DHT22;700;51.906;8.404;2023-07-20T19:27:00;23.10;65.50
1411;DHT22;700;51.906;8.404;2023-07-20T19:32:02;22.90;66.50
1411;DHT22;700;51.906;8.404;2023-07-20T19:37:06;22.70;66.50
1411;DHT22;700;51.906;8.404;2023-07-20T19:42:07;22.60;68.70
1411;DHT22;700;51.906;8.404;2023-07-20T19:47:08;22.50;69.70
1411;DHT22;700;51.906;8.404;2023-07-20T19:52:08;22.30;71.30
1411;DHT22;700;51.906;8.404;2023-07-20T19:57:09;22.20;73.40
1411;DHT22;700;51.906;8.404;2023-07-20T20:02:10;22.10;75.90
1411;DHT22;700;51.906;8.404;2023-07-20T20:07:10;22.00;77.80
1411;DHT22;700;51.906;8.404;2023-07-20T20:12:16;21.80;80.50
1411;DHT22;700;51.906;8.404;2023-07-20T20:17:19;21.80;84.60
1411;DHT22;700;51.906;8.404;2023-07-20T20:22:19;21.60;88.20
1411;DHT22;700;51.906;8.404;2023-07-20T20:27:22;21.50;90.50
1411;DHT22;700;51.906;8.404;2023-07-20T20:32:23;21.50;92.40
1411;DHT22;700;51.906;8.404;2023-07-20T20:37:29;21.60;95.60
1411;DHT22;700;51.906;8.404;2023-07-20T20:42:30;21.60;94.00
1411;DHT22;700;51.906;8.404;2023-07-20T20:47:30;21.60;95.00
1411;DHT22;700;51.906;8.404;2023-07-20T20:52:35;21.70;95.60
1411;DHT22;700;51.906;8.404;2023-07-20T20:57:38;21.60;96.30
1411;DHT22;700;51.906;8.404;2023-07-20T21:02:38;21.40;96.80
1411;DHT22;700;51.906;8.404;2023-07-20T21:07:41;21.50;98.20
1411;DHT22;700;51.906;8.404;2023-07-20T21:12:42;21.50;98.40
1411;DHT22;700;51.906;8.404;2023-07-20T21:17:43;21.60;99.10
1411;DHT22;700;51.906;8.404;2023-07-20T21:22:43;21.60;99.40
1411;DHT22;700;51.906;8.404;2023-07-20T21:27:44;21.50;99.00
1411;DHT22;700;51.906;8.404;2023-07-20T21:32:47;21.60;98.80
1411;DHT22;700;51.906;8.404;2023-07-20T21:37:49;21.50;98.60
1411;DHT22;700;51.906;8.404;2023-07-20T21:42:53;21.40;98.20
1411;DHT22;700;51.906;8.404;2023-07-20T21:47:54;21.40;98.10
1411;DHT22;700;51.906;8.404;2023-07-20T21:52:54;21.50;98.70
1411;DHT22;700;51.906;8.404;2023-07-20T21:57:55;21.40;99.90
1411;DHT22;700;51.906;8.404;2023-07-20T22:02:56;21.40;99.80
1411;DHT22;700;51.906;8.404;2023-07-20T22:07:57;21.40;99.80
1411;DHT22;700;51.906;8.404;2023-07-20T22:12:59;21.20;99.90
1411;DHT22;700;51.906;8.404;2023-07-20T22:18:00;21.20;99.90
1411;DHT22;700;51.906;8.404;2023-07-20T22:23:05;21.20;99.90
1411;DHT22;700;51.906;8.404;2023-07-20T22:28:06;21.20;99.90
1411;DHT22;700;51.906;8.404;2023-07-20T22:33:07;21.20;99.90
1411;DHT22;700;51.906;8.404;2023-07-20T22:38:09;21.20;99.90
1411;DHT22;700;51.906;8.404;2023-07-20T22:43:10;21.20;99.90
1411;DHT22;700;51.906;8.404;2023-07-20T22:48:13;21.10;99.90
1411;DHT22;700;51.906;8.404;2023-07-20T22:53:15;21.10;99.90
1411;DHT22;700;51.906;8.404;2023-07-20T22:58:16;21.10;99.90
1411;DHT22;700;51.906;8.404;2023-07-20T23:03:16;21.10;99.90
1411;DHT22;700;51.906;8.404;2023-07-20T23:08:19;21.10;99.90
1411;DHT22;700;51.906;8.404;2023-07-20T23:13:20;21.00;99.90
1411;DHT22;700;51.906;8.404;2023-07-20T23:18:23;21.00;99.90
1411;DHT22;700;51.906;8.404;2023-07-20T23:23:25;21.10;99.90
1411;DHT22;700;51.906;8.404;2023-07-20T23:28:28;21.10;99.90
1411;DHT22;700;51.906;8.404;2023-07-20T23:33:29;21.10;99.90
1411;DHT22;700;51.906;8.404;2023-07-20T23:38:30;21.10;99.90
1411;DHT22;700;51.906;8.404;2023-07-20T23:43:32;21.30;99.90
1411;DHT22;700;51.906;8.404;2023-07-20T23:48:35;20.90;99.90
1411;DHT22;700;51.906;8.404;2023-07-20T23:53:41;20.60;99.90
1411;DHT22;700;51.906;8.404;2023-07-20T23:58:45;20.40;99.90
